sensor_id;sensor_type;location;lat;lon;timestamp;temperature;humidity
40059;SHT31;25763;49.972;8.568;2023-11-19T00:02:14;8.49;92.28
40059;SHT31;25763;49.972;8.568;2023-11-19T00:04:39;8.47;92.26
40059;SHT31;25763;49.972;8.568;2023-11-19T00:07:05;8.49;92.24
40059;SHT31;25763;49.972;8.568;2023-11-19T00:09:35;8.45;92.21
40059;SHT31;25763;49.972;8.568;2023-11-19T00:12:03;8.52;92.27
40059;SHT31;25763;49.972;8.568;2023-11-19T00:14:29;8.57;92.22
40059;SHT31;25763;49.972;8.568;2023-11-19T00:16:55;8.56;92.25
40059;SHT31;25763;49.972;8.568;2023-11-19T00:19:20;8.54;92.21
40059;SHT31;25763;49.972;8.568;2023-11-19T00:21:46;8.54;92.27
40059;SHT31;25763;49.972;8.568;2023-11-19T00:24:11;8.57;92.22
40059;SHT31;25763;49.972;8.568;2023-11-19T00:26:38;8.61;92.27
40059;SHT31;25763;49.972;8.568;2023-11-19T00:29:04;8.63;92.19
40059;SHT31;25763;49.972;8.568;2023-11-19T00:31:29;8.61;92.23
40059;SHT31;25763;49.972;8.568;2023-11-19T00:33:55;8.57;92.25
40059;SHT31;25763;49.972;8.568;2023-11-19T00:36:20;8.60;92.25
40059;SHT31;25763;49.972;8.568;2023-11-19T00:38:46;8.64;92.26
40059;SHT31;25763;49.972;8.568;2023-11-19T00:41:11;8.64;92.25
40059;SHT31;25763;49.972;8.568;2023-11-19T00:43:37;8.63;92.24
40059;SHT31;25763;49.972;8.568;2023-11-19T00:46:03;8.61;92.21
40059;SHT31;25763;49.972;8.568;2023-11-19T00:48:28;8.64;92.24
40059;SHT31;25763;49.972;8.568;2023-11-19T00:50:53;8.65;92.25
40059;SHT31;25763;49.972;8.568;2023-11-19T00:53:19;8.67;92.24
40059;SHT31;25763;49.972;8.568;2023-11-19T00:55:45;8.65;92.20
40059;SHT31;25763;49.972;8.568;2023-11-19T00:58:10;8.71;92.26
40059;SHT31;25763;49.972;8.568;2023-11-19T01:00:35;8.71;92.26
40059;SHT31;25763;49.972;8.568;2023-11-19T01:03:01;8.65;92.20
40059;SHT31;25763;49.972;8.568;2023-11-19T01:05:26;8.65;92.21
40059;SHT31;25763;49.972;8.568;2023-11-19T01:07:53;8.68;92.32
40059;SHT31;25763;49.972;8.568;2023-11-19T01:10:19;8.68;92.28
40059;SHT31;25763;49.972;8.568;2023-11-19T01:12:45;8.67;92.26
40059;SHT31;25763;49.972;8.568;2023-11-19T01:15:11;8.68;92.28
40059;SHT31;25763;49.972;8.568;2023-11-19T01:17:38;8.68;92.35
40059;SHT31;25763;49.972;8.568;2023-11-19T01:20:04;8.73;92.35
40059;SHT31;25763;49.972;8.568;2023-11-19T01:22:32;8.70;92.33
40059;SHT31;25763;49.972;8.568;2023-11-19T01:24:58;8.73;92.34
40059;SHT31;25763;49.972;8.568;2023-11-19T01:27:24;8.73;92.38
40059;SHT31;25763;49.972;8.568;2023-11-19T01:29:50;8.71;92.38
40059;SHT31;25763;49.972;8.568;2023-11-19T01:32:15;8.74;92.45
40059;SHT31;25763;49.972;8.568;2023-11-19T01:34:41;8.77;92.53
40059;SHT31;25763;49.972;8.568;2023-11-19T01:37:06;8.78;92.53
40059;SHT31;25763;49.972;8.568;2023-11-19T01:39:32;8.77;92.61
40059;SHT31;25763;49.972;8.568;2023-11-19T01:41:57;8.77;92.55
40059;SHT31;25763;49.972;8.568;2023-11-19T01:44:22;8.80;92.60
40059;SHT31;25763;49.972;8.568;2023-11-19T01:46:48;8.81;92.66
40059;SHT31;25763;49.972;8.568;2023-11-19T01:49:17;8.84;92.71
40059;SHT31;25763;49.972;8.568;2023-11-19T01:51:44;8.84;92.65
40059;SHT31;25763;49.972;8.568;2023-11-19T01:54:10;8.83;92.64
40059;SHT31;25763;49.972;8.568;2023-11-19T01:56:37;8.84;92.69
40059;SHT31;25763;49.972;8.568;2023-11-19T01:59:06;8.91;92.75
40059;SHT31;25763;49.972;8.568;2023-11-19T02:01:32;8.92;92.78
40059;SHT31;25763;49.972;8.568;2023-11-19T02:04:01;8.94;92.78
40059;SHT31;25763;49.972;8.568;2023-11-19T02:06:27;8.95;92.73
40059;SHT31;25763;49.972;8.568;2023-11-19T02:08:53;8.95;92.79
40059;SHT31;25763;49.972;8.568;2023-11-19T02:11:19;8.99;92.80
40059;SHT31;25763;49.972;8.568;2023-11-19T02:13:44;9.02;92.84
40059;SHT31;25763;49.972;8.568;2023-11-19T02:16:09;9.04;92.80
40059;SHT31;25763;49.972;8.568;2023-11-19T02:18:36;9.04;92.80
40059;SHT31;25763;49.972;8.568;2023-11-19T02:21:02;9.05;92.82
40059;SHT31;25763;49.972;8.568;2023-11-19T02:23:28;9.06;92.76
40059;SHT31;25763;49.972;8.568;2023-11-19T02:28:35;9.14;92.81
40059;SHT31;25763;49.972;8.568;2023-11-19T02:31:01;9.15;92.81
40059;SHT31;25763;49.972;8.568;2023-11-19T02:33:26;9.15;92.82
40059;SHT31;25763;49.972;8.568;2023-11-19T02:35:52;9.16;92.78
40059;SHT31;25763;49.972;8.568;2023-11-19T02:38:17;9.16;92.81
40059;SHT31;25763;49.972;8.568;2023-11-19T02:40:43;9.20;92.86
40059;SHT31;25763;49.972;8.568;2023-11-19T02:43:08;9.23;92.85
40059;SHT31;25763;49.972;8.568;2023-11-19T02:45:34;9.23;92.81
40059;SHT31;25763;49.972;8.568;2023-11-19T02:47:59;9.29;92.83
40059;SHT31;25763;49.972;8.568;2023-11-19T02:50:27;9.29;92.81
40059;SHT31;25763;49.972;8.568;2023-11-19T02:52:54;9.33;92.82
40059;SHT31;25763;49.972;8.568;2023-11-19T02:55:22;9.32;92.81
40059;SHT31;25763;49.972;8.568;2023-11-19T02:57:49;9.36;92.80
40059;SHT31;25763;49.972;8.568;2023-11-19T03:00:16;9.34;92.82
40059;SHT31;25763;49.972;8.568;2023-11-19T03:02:42;9.40;92.81
40059;SHT31;25763;49.972;8.568;2023-11-19T03:05:14;9.43;92.79
40059;SHT31;25763;49.972;8.568;2023-11-19T03:07:41;9.44;92.75
40059;SHT31;25763;49.972;8.568;2023-11-19T03:10:08;9.44;92.74
40059;SHT31;25763;49.972;8.568;2023-11-19T03:12:34;9.47;92.74
40059;SHT31;25763;49.972;8.568;2023-11-19T03:14:59;9.47;92.71
40059;SHT31;25763;49.972;8.568;2023-11-19T03:17:25;9.46;92.69
40059;SHT31;25763;49.972;8.568;2023-11-19T03:19:50;9.51;92.72
40059;SHT31;25763;49.972;8.568;2023-11-19T03:22:15;9.48;92.70
40059;SHT31;25763;49.972;8.568;2023-11-19T03:24:41;9.51;92.76
40059;SHT31;25763;49.972;8.568;2023-11-19T03:27:06;9.51;92.82
40059;SHT31;25763;49.972;8.568;2023-11-19T03:29:31;9.51;92.78
40059;SHT31;25763;49.972;8.568;2023-11-19T03:31:57;9.52;92.80
40059;SHT31;25763;49.972;8.568;2023-11-19T03:34:22;9.55;92.86
40059;SHT31;25763;49.972;8.568;2023-11-19T03:36:47;9.58;92.82
40059;SHT31;25763;49.972;8.568;2023-11-19T03:39:14;9.57;92.86
40059;SHT31;25763;49.972;8.568;2023-11-19T03:41:39;9.58;92.84
40059;SHT31;25763;49.972;8.568;2023-11-19T03:44:05;9.62;92.92
40059;SHT31;25763;49.972;8.568;2023-11-19T03:46:30;9.61;92.89
40059;SHT31;25763;49.972;8.568;2023-11-19T03:48:56;9.61;92.98
40059;SHT31;25763;49.972;8.568;2023-11-19T03:51:21;9.65;92.96
40059;SHT31;25763;49.972;8.568;2023-11-19T03:53:47;9.65;92.94
40059;SHT31;25763;49.972;8.568;2023-11-19T03:56:12;9.65;92.88
40059;SHT31;25763;49.972;8.568;2023-11-19T03:58:38;9.67;92.96
40059;SHT31;25763;49.972;8.568;2023-11-19T04:01:11;9.68;92.96
40059;SHT31;25763;49.972;8.568;2023-11-19T04:03:38;9.67;92.94
40059;SHT31;25763;49.972;8.568;2023-11-19T04:06:03;9.71;92.99
40059;SHT31;25763;49.972;8.568;2023-11-19T04:08:29;9.69;92.95
40059;SHT31;25763;49.972;8.568;2023-11-19T04:10:54;9.72;92.99
40059;SHT31;25763;49.972;8.568;2023-11-19T04:13:20;9.75;93.04
40059;SHT31;25763;49.972;8.568;2023-11-19T04:15:45;9.75;93.05
40059;SHT31;25763;49.972;8.568;2023-11-19T04:18:10;9.77;93.04
40059;SHT31;25763;49.972;8.568;2023-11-19T04:20:36;9.79;93.04
40059;SHT31;25763;49.972;8.568;2023-11-19T04:23:01;9.77;93.03
40059;SHT31;25763;49.972;8.568;2023-11-19T04:25:27;9.82;93.04
40059;SHT31;25763;49.972;8.568;2023-11-19T04:27:52;9.79;93.08
40059;SHT31;25763;49.972;8.568;2023-11-19T04:30:18;9.79;93.07
40059;SHT31;25763;49.972;8.568;2023-11-19T04:32:44;9.89;93.03
40059;SHT31;25763;49.972;8.568;2023-11-19T04:35:09;9.86;92.97
40059;SHT31;25763;49.972;8.568;2023-11-19T04:37:34;9.88;92.99
40059;SHT31;25763;49.972;8.568;2023-11-19T04:40:00;9.86;92.94
40059;SHT31;25763;49.972;8.568;2023-11-19T04:42:26;9.91;92.94
40059;SHT31;25763;49.972;8.568;2023-11-19T04:44:51;9.86;92.90
40059;SHT31;25763;49.972;8.568;2023-11-19T04:47:17;9.88;92.93
40059;SHT31;25763;49.972;8.568;2023-11-19T04:49:42;9.93;92.92
40059;SHT31;25763;49.972;8.568;2023-11-19T04:52:11;9.88;92.88
40059;SHT31;25763;49.972;8.568;2023-11-19T04:54:46;9.93;93.00
40059;SHT31;25763;49.972;8.568;2023-11-19T04:57:11;9.96;93.01
40059;SHT31;25763;49.972;8.568;2023-11-19T04:59:37;9.96;93.03
40059;SHT31;25763;49.972;8.568;2023-11-19T05:02:03;10.00;92.98
40059;SHT31;25763;49.972;8.568;2023-11-19T05:04:29;9.99;92.98
40059;SHT31;25763;49.972;8.568;2023-11-19T05:06:54;9.99;92.99
40059;SHT31;25763;49.972;8.568;2023-11-19T05:09:20;10.03;93.04
40059;SHT31;25763;49.972;8.568;2023-11-19T05:11:45;10.05;93.03
40059;SHT31;25763;49.972;8.568;2023-11-19T05:14:11;10.03;93.02
40059;SHT31;25763;49.972;8.568;2023-11-19T05:16:39;10.05;93.01
40059;SHT31;25763;49.972;8.568;2023-11-19T05:19:04;10.08;93.01
40059;SHT31;25763;49.972;8.568;2023-11-19T05:21:30;10.09;93.01
40059;SHT31;25763;49.972;8.568;2023-11-19T05:23:55;10.05;92.98
40059;SHT31;25763;49.972;8.568;2023-11-19T05:26:23;10.09;93.01
40059;SHT31;25763;49.972;8.568;2023-11-19T05:28:49;10.09;92.99
40059;SHT31;25763;49.972;8.568;2023-11-19T05:31:16;10.16;93.07
40059;SHT31;25763;49.972;8.568;2023-11-19T05:33:41;10.14;92.99
40059;SHT31;25763;49.972;8.568;2023-11-19T05:36:07;10.16;92.99
40059;SHT31;25763;49.972;8.568;2023-11-19T05:38:36;10.20;92.99
40059;SHT31;25763;49.972;8.568;2023-11-19T05:41:02;10.20;92.99
40059;SHT31;25763;49.972;8.568;2023-11-19T05:43:27;10.20;93.06
40059;SHT31;25763;49.972;8.568;2023-11-19T05:45:53;10.26;92.97
40059;SHT31;25763;49.972;8.568;2023-11-19T05:48:18;10.24;93.00
40059;SHT31;25763;49.972;8.568;2023-11-19T05:50:44;10.26;93.00
40059;SHT31;25763;49.972;8.568;2023-11-19T05:53:10;10.27;93.03
40059;SHT31;25763;49.972;8.568;2023-11-19T05:55:38;10.31;93.06
40059;SHT31;25763;49.972;8.568;2023-11-19T05:58:11;10.34;93.03
40059;SHT31;25763;49.972;8.568;2023-11-19T06:00:38;10.33;92.97
40059;SHT31;25763;49.972;8.568;2023-11-19T06:03:04;10.37;92.97
40059;SHT31;25763;49.972;8.568;2023-11-19T06:05:29;10.38;92.95
40059;SHT31;25763;49.972;8.568;2023-11-19T06:07:55;10.38;92.99
40059;SHT31;25763;49.972;8.568;2023-11-19T06:10:20;10.38;93.01
40059;SHT31;25763;49.972;8.568;2023-11-19T06:12:46;10.42;93.05
40059;SHT31;25763;49.972;8.568;2023-11-19T06:15:12;10.41;93.07
40059;SHT31;25763;49.972;8.568;2023-11-19T06:17:38;10.45;93.09
40059;SHT31;25763;49.972;8.568;2023-11-19T06:20:04;10.42;93.20
40059;SHT31;25763;49.972;8.568;2023-11-19T06:22:30;10.45;93.22
40059;SHT31;25763;49.972;8.568;2023-11-19T06:24:56;10.49;93.25
40059;SHT31;25763;49.972;8.568;2023-11-19T06:27:21;10.49;93.23
40059;SHT31;25763;49.972;8.568;2023-11-19T06:29:47;10.51;93.25
40059;SHT31;25763;49.972;8.568;2023-11-19T06:32:13;10.54;93.29
40059;SHT31;25763;49.972;8.568;2023-11-19T06:34:38;10.55;93.30
40059;SHT31;25763;49.972;8.568;2023-11-19T06:37:03;10.57;93.29
40059;SHT31;25763;49.972;8.568;2023-11-19T06:39:29;10.61;93.29
40059;SHT31;25763;49.972;8.568;2023-11-19T06:41:55;10.62;93.28
40059;SHT31;25763;49.972;8.568;2023-11-19T06:44:20;10.62;93.29
40059;SHT31;25763;49.972;8.568;2023-11-19T06:46:45;10.62;93.31
40059;SHT31;25763;49.972;8.568;2023-11-19T06:49:11;10.64;93.34
40059;SHT31;25763;49.972;8.568;2023-11-19T06:51:41;10.65;93.41
40059;SHT31;25763;49.972;8.568;2023-11-19T06:54:07;10.65;93.43
40059;SHT31;25763;49.972;8.568;2023-11-19T06:56:32;10.69;93.52
40059;SHT31;25763;49.972;8.568;2023-11-19T06:58:57;10.73;93.46
40059;SHT31;25763;49.972;8.568;2023-11-19T07:01:23;10.75;93.55
40059;SHT31;25763;49.972;8.568;2023-11-19T07:03:48;10.76;93.53
40059;SHT31;25763;49.972;8.568;2023-11-19T07:06:14;10.80;93.52
40059;SHT31;25763;49.972;8.568;2023-11-19T07:08:43;10.77;93.47
40059;SHT31;25763;49.972;8.568;2023-11-19T07:11:12;10.80;93.44
40059;SHT31;25763;49.972;8.568;2023-11-19T07:13:40;10.82;93.49
40059;SHT31;25763;49.972;8.568;2023-11-19T07:16:07;10.82;93.38
40059;SHT31;25763;49.972;8.568;2023-11-19T07:18:35;10.92;93.39
40059;SHT31;25763;49.972;8.568;2023-11-19T07:21:00;10.97;93.48
40059;SHT31;25763;49.972;8.568;2023-11-19T07:23:26;11.04;93.47
40059;SHT31;25763;49.972;8.568;2023-11-19T07:25:51;11.08;93.42
40059;SHT31;25763;49.972;8.568;2023-11-19T07:28:18;11.07;93.33
40059;SHT31;25763;49.972;8.568;2023-11-19T07:30:44;11.11;93.37
40059;SHT31;25763;49.972;8.568;2023-11-19T07:33:09;11.12;93.26
40059;SHT31;25763;49.972;8.568;2023-11-19T07:35:34;11.14;93.22
40059;SHT31;25763;49.972;8.568;2023-11-19T07:38:00;11.12;93.17
40059;SHT31;25763;49.972;8.568;2023-11-19T07:40:25;11.15;93.14
40059;SHT31;25763;49.972;8.568;2023-11-19T07:42:51;11.20;93.12
40059;SHT31;25763;49.972;8.568;2023-11-19T07:45:17;11.17;93.10
40059;SHT31;25763;49.972;8.568;2023-11-19T07:47:43;11.14;93.02
40059;SHT31;25763;49.972;8.568;2023-11-19T07:50:10;11.11;92.93
40059;SHT31;25763;49.972;8.568;2023-11-19T07:52:37;11.10;92.96
40059;SHT31;25763;49.972;8.568;2023-11-19T07:55:02;11.11;93.05
40059;SHT31;25763;49.972;8.568;2023-11-19T07:57:28;11.27;93.10
40059;SHT31;25763;49.972;8.568;2023-11-19T07:59:56;11.34;93.08
40059;SHT31;25763;49.972;8.568;2023-11-19T08:02:22;11.45;93.08
40059;SHT31;25763;49.972;8.568;2023-11-19T08:04:49;11.61;93.00
40059;SHT31;25763;49.972;8.568;2023-11-19T08:07:17;11.76;92.92
40059;SHT31;25763;49.972;8.568;2023-11-19T08:09:42;11.77;92.76
40059;SHT31;25763;49.972;8.568;2023-11-19T08:12:08;11.83;92.63
40059;SHT31;25763;49.972;8.568;2023-11-19T08:14:34;11.90;92.56
40059;SHT31;25763;49.972;8.568;2023-11-19T08:17:00;11.93;92.40
40059;SHT31;25763;49.972;8.568;2023-11-19T08:19:26;12.01;92.30
40059;SHT31;25763;49.972;8.568;2023-11-19T08:21:51;11.98;92.07
40059;SHT31;25763;49.972;8.568;2023-11-19T08:24:16;12.08;92.01
40059;SHT31;25763;49.972;8.568;2023-11-19T08:26:42;12.12;91.89
40059;SHT31;25763;49.972;8.568;2023-11-19T08:29:07;12.17;91.74
40059;SHT31;25763;49.972;8.568;2023-11-19T08:31:32;12.26;91.55
40059;SHT31;25763;49.972;8.568;2023-11-19T08:33:58;12.38;91.52
40059;SHT31;25763;49.972;8.568;2023-11-19T08:36:23;12.26;91.27
40059;SHT31;25763;49.972;8.568;2023-11-19T08:38:48;12.20;91.32
40059;SHT31;25763;49.972;8.568;2023-11-19T08:41:14;12.20;91.32
40059;SHT31;25763;49.972;8.568;2023-11-19T08:43:40;12.18;91.36
40059;SHT31;25763;49.972;8.568;2023-11-19T08:46:10;12.15;91.36
40059;SHT31;25763;49.972;8.568;2023-11-19T08:48:36;12.14;91.46
40059;SHT31;25763;49.972;8.568;2023-11-19T08:51:01;12.22;91.53
40059;SHT31;25763;49.972;8.568;2023-11-19T08:53:26;12.24;91.55
40059;SHT31;25763;49.972;8.568;2023-11-19T08:55:52;12.26;91.53
40059;SHT31;25763;49.972;8.568;2023-11-19T08:58:17;12.32;91.56
40059;SHT31;25763;49.972;8.568;2023-11-19T09:00:43;12.36;91.57
40059;SHT31;25763;49.972;8.568;2023-11-19T09:03:08;12.35;91.50
40059;SHT31;25763;49.972;8.568;2023-11-19T09:05:34;12.36;91.47
40059;SHT31;25763;49.972;8.568;2023-11-19T09:08:00;12.45;91.47
40059;SHT31;25763;49.972;8.568;2023-11-19T09:10:25;12.46;91.40
40059;SHT31;25763;49.972;8.568;2023-11-19T09:12:52;12.45;91.31
40059;SHT31;25763;49.972;8.568;2023-11-19T09:15:17;12.42;91.30
40059;SHT31;25763;49.972;8.568;2023-11-19T09:17:43;12.50;91.32
40059;SHT31;25763;49.972;8.568;2023-11-19T09:20:08;12.68;91.30
40059;SHT31;25763;49.972;8.568;2023-11-19T09:22:37;12.97;91.16
40059;SHT31;25763;49.972;8.568;2023-11-19T09:25:02;13.09;90.77
40059;SHT31;25763;49.972;8.568;2023-11-19T09:27:28;13.22;90.46
40059;SHT31;25763;49.972;8.568;2023-11-19T09:29:54;13.30;89.98
40059;SHT31;25763;49.972;8.568;2023-11-19T09:32:22;13.33;89.64
40059;SHT31;25763;49.972;8.568;2023-11-19T09:34:48;13.50;89.43
40059;SHT31;25763;49.972;8.568;2023-11-19T09:37:13;13.55;89.16
40059;SHT31;25763;49.972;8.568;2023-11-19T09:39:40;13.53;88.67
40059;SHT31;25763;49.972;8.568;2023-11-19T09:42:11;13.50;88.10
40059;SHT31;25763;49.972;8.568;2023-11-19T09:44:38;13.61;88.41
40059;SHT31;25763;49.972;8.568;2023-11-19T09:47:04;13.75;88.08
40059;SHT31;25763;49.972;8.568;2023-11-19T09:49:30;13.79;87.73
40059;SHT31;25763;49.972;8.568;2023-11-19T09:51:56;13.88;87.26
40059;SHT31;25763;49.972;8.568;2023-11-19T09:54:21;13.96;86.99
40059;SHT31;25763;49.972;8.568;2023-11-19T09:56:47;14.05;86.66
40059;SHT31;25763;49.972;8.568;2023-11-19T09:59:13;14.14;86.54
40059;SHT31;25763;49.972;8.568;2023-11-19T10:01:38;14.05;85.52
40059;SHT31;25763;49.972;8.568;2023-11-19T10:04:05;14.08;85.17
40059;SHT31;25763;49.972;8.568;2023-11-19T10:06:31;14.23;84.92
40059;SHT31;25763;49.972;8.568;2023-11-19T10:08:56;14.30;84.59
40059;SHT31;25763;49.972;8.568;2023-11-19T10:11:22;14.44;83.50
40059;SHT31;25763;49.972;8.568;2023-11-19T10:13:47;14.41;83.20
40059;SHT31;25763;49.972;8.568;2023-11-19T10:16:14;14.37;81.73
40059;SHT31;25763;49.972;8.568;2023-11-19T10:18:46;14.42;81.99
40059;SHT31;25763;49.972;8.568;2023-11-19T10:21:13;14.42;80.48
40059;SHT31;25763;49.972;8.568;2023-11-19T10:23:52;14.48;80.57
40059;SHT31;25763;49.972;8.568;2023-11-19T10:26:19;14.52;79.87
40059;SHT31;25763;49.972;8.568;2023-11-19T10:28:46;14.61;79.96
40059;SHT31;25763;49.972;8.568;2023-11-19T10:31:13;14.75;80.47
40059;SHT31;25763;49.972;8.568;2023-11-19T10:33:38;14.62;78.30
40059;SHT31;25763;49.972;8.568;2023-11-19T10:36:04;14.61;78.25
40059;SHT31;25763;49.972;8.568;2023-11-19T10:38:30;14.38;78.59
40059;SHT31;25763;49.972;8.568;2023-11-19T10:40:55;14.30;79.05
40059;SHT31;25763;49.972;8.568;2023-11-19T10:43:22;14.28;78.47
40059;SHT31;25763;49.972;8.568;2023-11-19T10:45:48;14.14;79.10
40059;SHT31;25763;49.972;8.568;2023-11-19T10:48:14;14.03;79.23
40059;SHT31;25763;49.972;8.568;2023-11-19T10:50:43;13.92;80.12
40059;SHT31;25763;49.972;8.568;2023-11-19T10:53:11;13.89;80.01
40059;SHT31;25763;49.972;8.568;2023-11-19T10:55:40;13.95;80.18
40059;SHT31;25763;49.972;8.568;2023-11-19T10:58:08;13.93;79.65
40059;SHT31;25763;49.972;8.568;2023-11-19T11:00:45;13.89;79.32
40059;SHT31;25763;49.972;8.568;2023-11-19T11:03:18;13.99;79.87
40059;SHT31;25763;49.972;8.568;2023-11-19T11:05:47;14.12;78.77
40059;SHT31;25763;49.972;8.568;2023-11-19T11:08:13;14.21;78.97
40059;SHT31;25763;49.972;8.568;2023-11-19T11:10:45;14.35;78.14
40059;SHT31;25763;49.972;8.568;2023-11-19T11:13:11;14.33;77.31
40059;SHT31;25763;49.972;8.568;2023-11-19T11:15:38;14.34;78.28
40059;SHT31;25763;49.972;8.568;2023-11-19T11:18:06;14.33;78.25
40059;SHT31;25763;49.972;8.568;2023-11-19T11:20:33;14.30;78.16
40059;SHT31;25763;49.972;8.568;2023-11-19T11:28:43;14.37;78.76
40059;SHT31;25763;49.972;8.568;2023-11-19T11:37:37;14.34;77.64
40059;SHT31;25763;49.972;8.568;2023-11-19T11:40:04;14.34;78.14
40059;SHT31;25763;49.972;8.568;2023-11-19T11:42:38;14.31;78.67
40059;SHT31;25763;49.972;8.568;2023-11-19T11:45:05;14.30;78.70
40059;SHT31;25763;49.972;8.568;2023-11-19T11:50:15;14.72;77.85
40059;SHT31;25763;49.972;8.568;2023-11-19T11:55:28;15.24;76.28
40059;SHT31;25763;49.972;8.568;2023-11-19T11:57:57;15.35;75.78
40059;SHT31;25763;49.972;8.568;2023-11-19T12:03:00;15.17;75.27
40059;SHT31;25763;49.972;8.568;2023-11-19T12:05:27;15.34;75.07
40059;SHT31;25763;49.972;8.568;2023-11-19T12:08:03;15.42;73.83
40059;SHT31;25763;49.972;8.568;2023-11-19T12:10:46;15.41;73.09
40059;SHT31;25763;49.972;8.568;2023-11-19T12:13:13;15.44;72.52
40059;SHT31;25763;49.972;8.568;2023-11-19T12:18:31;15.51;71.92
40059;SHT31;25763;49.972;8.568;2023-11-19T12:20:58;15.63;70.87
40059;SHT31;25763;49.972;8.568;2023-11-19T12:23:30;15.69;68.03
40059;SHT31;25763;49.972;8.568;2023-11-19T12:25:58;15.79;68.58
40059;SHT31;25763;49.972;8.568;2023-11-19T12:28:24;15.66;65.44
40059;SHT31;25763;49.972;8.568;2023-11-19T12:30:52;15.61;65.75
40059;SHT31;25763;49.972;8.568;2023-11-19T12:33:19;15.63;66.21
40059;SHT31;25763;49.972;8.568;2023-11-19T12:35:48;15.62;66.18
40059;SHT31;25763;49.972;8.568;2023-11-19T12:38:25;15.61;64.66
40059;SHT31;25763;49.972;8.568;2023-11-19T12:41:05;15.55;64.40
40059;SHT31;25763;49.972;8.568;2023-11-19T12:43:32;15.59;64.23
40059;SHT31;25763;49.972;8.568;2023-11-19T12:45:59;15.56;65.17
40059;SHT31;25763;49.972;8.568;2023-11-19T12:48:24;15.59;65.25
40059;SHT31;25763;49.972;8.568;2023-11-19T12:53:16;15.58;65.31
40059;SHT31;25763;49.972;8.568;2023-11-19T12:55:42;15.59;65.16
40059;SHT31;25763;49.972;8.568;2023-11-19T12:58:07;15.65;65.43
40059;SHT31;25763;49.972;8.568;2023-11-19T13:00:32;15.61;63.77
40059;SHT31;25763;49.972;8.568;2023-11-19T13:02:58;15.65;64.41
40059;SHT31;25763;49.972;8.568;2023-11-19T13:07:49;15.73;64.69
40059;SHT31;25763;49.972;8.568;2023-11-19T13:10:15;15.77;64.14
40059;SHT31;25763;49.972;8.568;2023-11-19T13:12:40;15.73;64.69
40059;SHT31;25763;49.972;8.568;2023-11-19T13:15:06;15.59;61.77
40059;SHT31;25763;49.972;8.568;2023-11-19T13:17:32;15.66;63.32
40059;SHT31;25763;49.972;8.568;2023-11-19T13:19:57;15.62;62.60
40059;SHT31;25763;49.972;8.568;2023-11-19T13:22:22;15.58;62.65
40059;SHT31;25763;49.972;8.568;2023-11-19T13:24:48;15.63;62.80
40059;SHT31;25763;49.972;8.568;2023-11-19T13:27:14;15.62;62.55
40059;SHT31;25763;49.972;8.568;2023-11-19T13:29:39;15.59;62.63
40059;SHT31;25763;49.972;8.568;2023-11-19T13:32:05;15.61;61.99
40059;SHT31;25763;49.972;8.568;2023-11-19T13:34:31;15.61;62.20
40059;SHT31;25763;49.972;8.568;2023-11-19T13:36:56;15.53;62.12
40059;SHT31;25763;49.972;8.568;2023-11-19T13:39:22;15.53;62.61
40059;SHT31;25763;49.972;8.568;2023-11-19T13:41:49;15.52;63.44
40059;SHT31;25763;49.972;8.568;2023-11-19T13:44:16;15.52;62.36
40059;SHT31;25763;49.972;8.568;2023-11-19T13:46:44;15.45;63.07
40059;SHT31;25763;49.972;8.568;2023-11-19T13:49:10;15.46;63.36
40059;SHT31;25763;49.972;8.568;2023-11-19T13:51:35;15.45;62.90
40059;SHT31;25763;49.972;8.568;2023-11-19T13:54:01;15.44;62.79
40059;SHT31;25763;49.972;8.568;2023-11-19T13:56:26;15.31;63.40
40059;SHT31;25763;49.972;8.568;2023-11-19T13:58:53;15.17;62.88
40059;SHT31;25763;49.972;8.568;2023-11-19T14:01:19;15.15;63.62
40059;SHT31;25763;49.972;8.568;2023-11-19T14:03:44;15.15;63.87
40059;SHT31;25763;49.972;8.568;2023-11-19T14:06:09;15.03;64.45
40059;SHT31;25763;49.972;8.568;2023-11-19T14:08:35;14.94;64.77
40059;SHT31;25763;49.972;8.568;2023-11-19T14:11:00;14.82;63.74
40059;SHT31;25763;49.972;8.568;2023-11-19T14:13:26;14.72;64.03
40059;SHT31;25763;49.972;8.568;2023-11-19T14:15:52;14.62;64.44
40059;SHT31;25763;49.972;8.568;2023-11-19T14:18:17;14.51;65.02
40059;SHT31;25763;49.972;8.568;2023-11-19T14:20:43;14.44;65.37
40059;SHT31;25763;49.972;8.568;2023-11-19T14:23:09;14.40;65.34
40059;SHT31;25763;49.972;8.568;2023-11-19T14:25:34;14.45;65.11
40059;SHT31;25763;49.972;8.568;2023-11-19T14:28:00;14.51;64.60
40059;SHT31;25763;49.972;8.568;2023-11-19T14:30:25;14.45;64.85
40059;SHT31;25763;49.972;8.568;2023-11-19T14:32:50;14.38;65.12
40059;SHT31;25763;49.972;8.568;2023-11-19T14:35:16;14.35;64.98
40059;SHT31;25763;49.972;8.568;2023-11-19T14:37:42;14.38;65.64
40059;SHT31;25763;49.972;8.568;2023-11-19T14:40:07;14.37;65.49
40059;SHT31;25763;49.972;8.568;2023-11-19T14:42:36;14.35;65.54
40059;SHT31;25763;49.972;8.568;2023-11-19T14:45:02;14.45;65.23
40059;SHT31;25763;49.972;8.568;2023-11-19T14:47:27;14.41;65.20
40059;SHT31;25763;49.972;8.568;2023-11-19T14:49:54;14.42;65.31
40059;SHT31;25763;49.972;8.568;2023-11-19T14:52:19;14.40;64.88
40059;SHT31;25763;49.972;8.568;2023-11-19T14:54:45;14.40;64.57
40059;SHT31;25763;49.972;8.568;2023-11-19T14:57:11;14.38;64.66
40059;SHT31;25763;49.972;8.568;2023-11-19T14:59:37;14.30;64.96
40059;SHT31;25763;49.972;8.568;2023-11-19T15:02:03;14.26;65.55
40059;SHT31;25763;49.972;8.568;2023-11-19T15:04:29;14.12;65.93
40059;SHT31;25763;49.972;8.568;2023-11-19T15:06:56;14.02;66.13
40059;SHT31;25763;49.972;8.568;2023-11-19T15:09:22;13.96;66.18
40059;SHT31;25763;49.972;8.568;2023-11-19T15:11:47;13.88;66.71
40059;SHT31;25763;49.972;8.568;2023-11-19T15:14:13;13.86;66.61
40059;SHT31;25763;49.972;8.568;2023-11-19T15:16:44;13.82;66.84
40059;SHT31;25763;49.972;8.568;2023-11-19T15:19:10;13.85;66.30
40059;SHT31;25763;49.972;8.568;2023-11-19T15:21:35;13.85;65.77
40059;SHT31;25763;49.972;8.568;2023-11-19T15:24:01;13.82;65.70
40059;SHT31;25763;49.972;8.568;2023-11-19T15:26:30;13.85;65.67
40059;SHT31;25763;49.972;8.568;2023-11-19T15:28:55;13.71;66.72
40059;SHT31;25763;49.972;8.568;2023-11-19T15:31:22;13.62;66.84
40059;SHT31;25763;49.972;8.568;2023-11-19T15:33:48;13.61;67.04
40059;SHT31;25763;49.972;8.568;2023-11-19T15:36:13;13.50;67.70
40059;SHT31;25763;49.972;8.568;2023-11-19T15:38:39;13.44;67.65
40059;SHT31;25763;49.972;8.568;2023-11-19T15:41:05;13.41;68.12
40059;SHT31;25763;49.972;8.568;2023-11-19T15:43:32;13.34;68.36
40059;SHT31;25763;49.972;8.568;2023-11-19T15:45:57;13.30;68.70
40059;SHT31;25763;49.972;8.568;2023-11-19T15:48:23;13.20;68.91
40059;SHT31;25763;49.972;8.568;2023-11-19T15:50:49;13.12;69.64
40059;SHT31;25763;49.972;8.568;2023-11-19T15:53:15;13.11;69.56
40059;SHT31;25763;49.972;8.568;2023-11-19T15:55:40;13.08;69.80
40059;SHT31;25763;49.972;8.568;2023-11-19T15:58:05;13.02;70.30
40059;SHT31;25763;49.972;8.568;2023-11-19T16:00:31;12.92;70.20